This is the latest recevied weather packets stored in our database for station/object OE3APM-13. If no packets are shown the sender has not sent any weather packets the latest 1 day(s).
| Time | Temp. | Humidity | Pressure | Rain* | Wind** | Luminosity | Snow |
|---|---|---|---|---|---|---|---|
| 1778044826 | 12.78° C | 85% | 1008 hPa | 0 mm | - | 279 W/m² | - |
| 1778044524 | 12.22° C | 86% | 1008 hPa | 0 mm | - | 232 W/m² | - |
| 1778044222 | 11.67° C | 88% | 1008 hPa | 0 mm | - | 199 W/m² | - |
| 1778043320 | 10.56° C | 94% | 1008 hPa | 0 mm | - | 146 W/m² | - |
| 1778043019 | 10.56° C | 94% | 1008.1 hPa | 0 mm | - | 132 W/m² | - |
| 1778042720 | 10° C | 94% | 1008.2 hPa | 0 mm | - | 114 W/m² | - |
| 1778042420 | 9.44° C | 94% | 1008.2 hPa | 0 mm | - | 98 W/m² | - |
| 1778042118 | 9.44° C | 93% | 1008.1 hPa | 0 mm | - | 83 W/m² | - |
| 1778041811 | 8.89° C | 92% | 1008.1 hPa | 0 mm | - | 74 W/m² | - |
| 1778041511 | 8.89° C | 91% | 1008.1 hPa | 0 mm | - | 54 W/m² | - |
| 1778041213 | 8.89° C | 90% | 1008 hPa | 0 mm | - | 9 W/m² | - |
| 1778040913 | 8.89° C | 90% | 1007.8 hPa | 0 mm | - | 7 W/m² | - |
| 1778040612 | 8.89° C | 90% | 1007.7 hPa | 0 mm | - | 5 W/m² | - |
| 1778040309 | 8.89° C | 90% | 1007.6 hPa | 0 mm | - | 0 W/m² | - |
| 1778039403 | 8.89° C | 89% | 1007.5 hPa | 0 mm | - | 0 W/m² | - |
| 1778039105 | 8.89° C | 89% | 1007.4 hPa | 0 mm | - | 0 W/m² | - |
| 1778038804 | 9.44° C | 89% | 1007.4 hPa | 0 mm | - | 0 W/m² | - |
| 1778037595 | 9.44° C | 88% | 1007.4 hPa | 0 mm | - | 0 W/m² | - |
| 1778037295 | 9.44° C | 86% | 1007.3 hPa | 0 mm | - | 0 W/m² | - |
| 1778036991 | 9.44° C | 85% | 1007.3 hPa | 0 mm | - | 0 W/m² | - |
| 1778036389 | 10° C | 85% | 1007.1 hPa | 0 mm | - | 0 W/m² | - |
| 1778036087 | 10.56° C | 85% | 1007.3 hPa | 0 mm | - | 0 W/m² | - |
| 1778035786 | 10.56° C | 85% | 1007.3 hPa | 0 mm | - | 0 W/m² | - |
| 1778035486 | 10.56° C | 85% | 1007.4 hPa | 0 mm | - | 0 W/m² | - |
| 1778035187 | 10.56° C | 86% | 1007.4 hPa | 0 mm | - | 0 W/m² | - |
* Rain latest hour (hover to see other rain measurements)
** Current wind speed in m/s (hover to see current wind gust speed)